Santa Fe, Texas
Current Conditions -  °F | °C
As of 2:53 PM on Friday 28 Nov 2014 (Local Time) from KLVJ Reporting Station
Scattered Clouds Scattered Clouds  
Wind Chill: 70°   Ceiling: Unl
Heat Index: 70°   Visibility: 10mi
Dew Point: 55°   Wind: 13mph
Humidity: 59%   Direction: 160°SSE
Pressure: 30.22"   Gusts: NA
Location:  29.37°N, 95.08°W
Report Text: KLVJ 282053Z AUTO 16011KT 10SM SCT035 SCT055 21/13 A3022 RMK AO2 SLP233 T02110128 56026
Loading
Personal Weather Stations






























Interactive Weather Map New forecast layout! Learn more

10-Day Weather Forecast

Advertisements
Track Severe Weather on mobile